Time;durP1;ratioP1;P1;durP2;ratioP2;P2;SDS_P1;SDS_P2;PMS_P1;PMS_P2;Temp;Humidity;BMP_temperature;BMP_pressure;BME280_temperature;BME280_humidity;BME280_pressure;Samples;Min_cycle;Max_cycle;Signal;HPM_P1;HPM_P2
2023/05/23 00:00:35;;;;;;;91.88;86.47;;;;;;;23.05;47.06;101813.28;5019955;28;20256;-77
2023/05/23 00:03:01;;;;;;;88.38;83.63;;;;;;;23.02;46.90;101824.94;5029744;28;20037;-73
2023/05/23 00:05:28;;;;;;;86.43;81.72;;;;;;;22.99;46.78;101814.50;4994536;28;20030;-72
2023/05/23 00:07:53;;;;;;;88.93;84.00;;;;;;;22.96;46.88;101813.16;5006609;28;20026;-74
2023/05/23 00:10:19;;;;;;;91.60;86.32;;;;;;;22.95;46.53;101818.94;4995895;28;20041;-74
2023/05/23 00:12:46;;;;;;;85.72;81.32;;;;;;;22.91;47.09;101818.75;5001987;28;20030;-73
2023/05/23 00:15:12;;;;;;;87.13;81.95;;;;;;;22.88;46.62;101809.13;5002386;28;20061;-74
2023/05/23 00:17:38;;;;;;;86.22;81.50;;;;;;;22.85;46.79;101812.47;5003722;28;20048;-74
2023/05/23 00:20:05;;;;;;;82.72;78.63;;;;;;;22.82;47.01;101815.84;5026845;28;20113;-75
2023/05/23 00:22:30;;;;;;;88.25;83.45;;;;;;;22.79;47.03;101815.63;5001395;28;20120;-74
2023/05/23 00:24:56;;;;;;;81.82;78.05;;;;;;;22.76;46.86;101817.03;5000970;28;20447;-74
2023/05/23 00:27:22;;;;;;;81.47;77.63;;;;;;;22.72;46.77;101818.75;5008981;28;20038;-74
2023/05/23 00:29:48;;;;;;;84.40;80.15;;;;;;;22.70;46.98;101823.72;5021393;28;20450;-73
2023/05/23 00:32:13;;;;;;;82.13;78.20;;;;;;;22.68;46.82;101815.78;5019054;28;20026;-73
2023/05/23 00:34:39;;;;;;;81.80;77.90;;;;;;;22.66;47.12;101828.22;5004244;28;20125;-74
2023/05/23 00:37:04;;;;;;;80.93;76.90;;;;;;;22.62;46.89;101829.91;5016558;28;20559;-74
2023/05/23 00:39:30;;;;;;;79.97;75.82;;;;;;;22.58;47.03;101839.88;5004866;28;20030;-74
2023/05/23 00:41:56;;;;;;;81.35;77.35;;;;;;;22.55;47.32;101835.78;4997301;28;20072;-77
2023/05/23 00:44:22;;;;;;;80.22;75.93;;;;;;;22.53;47.31;101839.94;5006267;28;20113;-74
2023/05/23 00:46:51;;;;;;;83.03;78.82;;;;;;;22.47;47.39;101856.53;5001677;28;20042;-77
2023/05/23 00:49:19;;;;;;;78.28;74.68;;;;;;;22.45;47.15;101847.78;4996679;28;20144;-75
2023/05/23 00:51:45;;;;;;;83.03;78.50;;;;;;;22.43;47.16;101851.94;5013936;28;20113;-73
2023/05/23 00:54:12;;;;;;;77.10;73.50;;;;;;;22.38;47.25;101855.59;5014440;28;20065;-74
2023/05/23 00:56:38;;;;;;;78.97;75.07;;;;;;;22.35;47.08;101858.09;5025391;28;20113;-72
2023/05/23 00:59:04;;;;;;;74.65;70.85;;;;;;;22.31;47.39;101851.56;5019798;28;20042;-72
2023/05/23 01:01:30;;;;;;;76.43;72.82;;;;;;;22.29;47.06;101854.59;5014892;28;20030;-73
2023/05/23 01:03:57;;;;;;;79.07;75.18;;;;;;;22.27;46.95;101847.75;5007719;28;20041;-72
2023/05/23 01:06:22;;;;;;;81.75;76.70;;;;;;;22.24;47.31;101860.16;5012801;28;20033;-72
2023/05/23 01:08:48;;;;;;;78.72;74.45;;;;;;;22.22;46.97;101859.63;5004864;28;20126;-72
2023/05/23 01:11:26;;;;;;;78.55;74.30;;;;;;;22.18;47.28;101855.81;5024158;28;20116;-75
2023/05/23 01:14:12;;;;;;;;;;;;;;;22.16;47.36;101863.53;5006852;28;20030;-73
2023/05/23 01:16:54;;;;;;;75.45;71.47;;;;;;;22.11;47.66;101860.84;5005485;28;20341;-73
2023/05/23 01:19:31;;;;;;;76.68;72.55;;;;;;;22.08;46.98;101864.19;5017358;28;20041;-72
2023/05/23 01:22:03;;;;;;;78.55;74.10;;;;;;;22.07;47.51;101865.28;5028774;28;20032;-73
2023/05/23 01:24:38;;;;;;;81.38;77.15;;;;;;;22.03;47.53;101873.31;5013549;28;20104;-73
2023/05/23 01:27:14;;;;;;;76.75;72.70;;;;;;;22.01;47.51;101878.28;5029125;28;20032;-73
2023/05/23 01:29:45;;;;;;;81.50;75.70;;;;;;;21.97;47.10;101864.31;5016188;28;20117;-73
2023/05/23 01:32:13;;;;;;;76.47;72.40;;;;;;;21.95;47.28;101869.28;5028451;28;20037;-73
2023/05/23 01:34:39;;;;;;;81.47;76.68;;;;;;;21.93;47.45;101877.00;4996425;28;20023;-72
2023/05/23 01:37:13;;;;;;;74.70;71.28;;;;;;;21.91;47.49;101872.91;5016020;28;20125;-72
2023/05/23 01:39:38;;;;;;;78.47;74.20;;;;;;;21.88;47.18;101873.50;5014328;28;20052;-75
2023/05/23 01:42:05;;;;;;;76.70;72.88;;;;;;;21.86;47.37;101879.28;4998825;28;20386;-73
2023/05/23 01:44:33;;;;;;;76.85;72.72;;;;;;;21.81;47.71;101868.34;5000502;28;20034;-73
2023/05/23 01:46:59;;;;;;;77.57;73.53;;;;;;;21.79;47.75;101874.09;4992881;28;20042;-73
2023/05/23 01:49:25;;;;;;;72.85;69.53;;;;;;;21.78;47.64;101874.41;4986041;28;20038;-74
2023/05/23 01:51:51;;;;;;;74.78;71.05;;;;;;;21.76;47.35;101877.44;5009233;28;20038;-73
2023/05/23 01:54:18;;;;;;;75.55;71.97;;;;;;;21.75;47.72;101880.50;5012082;28;20046;-73
2023/05/23 01:56:44;;;;;;;78.68;74.43;;;;;;;21.73;47.63;101874.47;5015125;28;20397;-73
2023/05/23 01:59:10;;;;;;;76.78;72.80;;;;;;;21.70;47.44;101878.63;4992807;28;20117;-73
2023/05/23 02:01:37;;;;;;;76.63;72.53;;;;;;;21.67;47.62;101873.72;4997311;28;20038;-73
2023/05/23 02:04:02;;;;;;;76.82;72.72;;;;;;;21.66;47.48;101880.31;5004122;28;20545;-73
2023/05/23 02:06:28;;;;;;;74.72;71.00;;;;;;;21.63;47.54;101877.31;5005609;28;20042;-78
2023/05/23 02:08:53;;;;;;;76.45;72.30;;;;;;;21.60;47.44;101887.78;5009834;28;20037;-73
2023/05/23 02:11:19;;;;;;;71.75;68.10;;;;;;;21.59;47.77;101883.38;5015817;28;20042;-73
2023/05/23 02:13:44;;;;;;;74.50;70.93;;;;;;;21.56;47.61;101885.91;5005062;28;20035;-73
2023/05/23 02:16:10;;;;;;;75.22;71.05;;;;;;;21.54;47.80;101888.94;5033681;28;20054;-73
2023/05/23 02:18:37;;;;;;;75.95;71.63;;;;;;;21.52;47.45;101890.31;5009334;28;20041;-74
2023/05/23 02:21:04;;;;;;;72.40;68.43;;;;;;;21.48;47.92;101895.59;5017687;28;20450;-73
2023/05/23 02:23:29;;;;;;;75.00;70.68;;;;;;;21.46;47.73;101897.81;5028660;28;20030;-73
2023/05/23 02:25:55;;;;;;;75.28;71.10;;;;;;;21.44;47.65;101907.44;5000178;28;20049;-73
2023/05/23 02:28:20;;;;;;;72.65;68.70;;;;;;;21.41;47.59;101900.59;5005344;28;20034;-73
2023/05/23 02:30:45;;;;;;;75.57;71.32;;;;;;;21.39;47.90;101897.31;5008540;28;20112;-73
2023/05/23 02:33:11;;;;;;;74.22;70.45;;;;;;;21.36;47.95;101906.91;5002610;28;20479;-73
2023/05/23 02:35:36;;;;;;;69.63;65.85;;;;;;;21.34;47.80;101908.31;5006195;28;20042;-73
2023/05/23 02:38:01;;;;;;;73.40;69.30;;;;;;;21.32;48.06;101900.38;5012775;28;20038;-73
2023/05/23 02:40:27;;;;;;;71.30;67.55;;;;;;;21.29;47.50;101900.13;5012184;28;20038;-73
2023/05/23 02:42:55;;;;;;;74.22;70.45;;;;;;;21.27;47.85;101905.06;5023727;28;20040;-73
2023/05/23 02:45:21;;;;;;;70.40;66.90;;;;;;;21.24;47.71;101909.22;4997742;28;20046;-73
2023/05/23 02:47:46;;;;;;;71.82;68.25;;;;;;;21.22;47.67;101905.94;5000656;28;20113;-73
2023/05/23 02:50:12;;;;;;;69.47;66.20;;;;;;;21.20;48.13;101899.91;5006932;28;20080;-73
2023/05/23 02:52:37;;;;;;;69.15;65.22;;;;;;;21.17;48.23;101895.81;5018015;28;20056;-73
2023/05/23 02:55:03;;;;;;;70.90;67.40;;;;;;;21.14;47.74;101895.56;5019079;28;20359;-73
2023/05/23 02:57:28;;;;;;;76.53;72.55;;;;;;;21.12;48.00;101898.59;5002819;28;20478;-73
2023/05/23 02:59:54;;;;;;;70.28;67.00;;;;;;;21.11;47.89;101896.94;4999612;28;20535;-73
2023/05/23 03:02:20;;;;;;;72.07;68.43;;;;;;;21.08;48.05;101900.25;5012185;28;20034;-73
2023/05/23 03:04:45;;;;;;;70.22;66.80;;;;;;;21.06;48.00;101896.97;5012862;28;20038;-74
2023/05/23 03:07:12;;;;;;;69.68;66.15;;;;;;;21.04;47.74;101893.72;5010448;28;20062;-74
2023/05/23 03:09:38;;;;;;;70.68;67.13;;;;;;;21.02;47.80;101898.66;5017302;28;20513;-73
2023/05/23 03:12:04;;;;;;;69.88;66.20;;;;;;;21.00;47.89;101898.13;5005389;28;20053;-74
2023/05/23 03:14:29;;;;;;;67.88;64.50;;;;;;;20.99;47.97;101902.00;5010602;28;20046;-73
2023/05/23 03:16:55;;;;;;;73.05;69.03;;;;;;;20.97;47.73;101904.19;5013888;28;20041;-74
2023/05/23 03:19:20;;;;;;;65.72;62.63;;;;;;;20.96;48.12;101897.03;5030729;28;20116;-73
2023/05/23 03:21:46;;;;;;;69.57;66.20;;;;;;;20.94;48.01;101899.25;5017990;28;20076;-79
2023/05/23 03:24:11;;;;;;;69.32;65.75;;;;;;;20.92;47.89;101898.75;5012035;28;20045;-75
2023/05/23 03:26:36;;;;;;;67.60;64.00;;;;;;;20.90;47.76;101899.00;5013995;28;20037;-74
2023/05/23 03:29:02;;;;;;;69.38;66.00;;;;;;;20.88;48.33;101906.72;5014617;28;20030;-73
2023/05/23 03:31:27;;;;;;;68.95;65.55;;;;;;;20.88;48.27;101905.91;5011788;28;20549;-74
2023/05/23 03:33:53;;;;;;;69.28;65.78;;;;;;;20.85;47.86;101911.97;5012017;28;20076;-73
2023/05/23 03:36:18;;;;;;;71.30;67.45;;;;;;;20.82;47.86;101905.13;5003859;28;20038;-74
2023/05/23 03:38:43;;;;;;;68.30;64.82;;;;;;;20.81;47.92;101910.88;5013916;28;20471;-73
2023/05/23 03:41:09;;;;;;;71.90;68.28;;;;;;;20.78;47.96;101911.44;5006002;28;20033;-75
2023/05/23 03:43:34;;;;;;;69.38;65.30;;;;;;;20.77;48.42;101909.81;5015528;28;20042;-75
2023/05/23 03:46:00;;;;;;;69.00;65.40;;;;;;;20.75;48.34;101916.41;5040412;28;20451;-73
2023/05/23 03:48:25;;;;;;;70.07;65.88;;;;;;;20.74;48.32;101911.22;5022587;28;20033;-73
2023/05/23 03:50:51;;;;;;;69.70;65.35;;;;;;;20.72;48.39;101911.47;5019895;28;20470;-73
2023/05/23 03:53:16;;;;;;;66.47;62.90;;;;;;;20.70;48.45;101918.34;5025366;28;20038;-73
2023/05/23 03:55:41;;;;;;;71.03;66.68;;;;;;;20.67;48.07;101925.22;5025154;28;20539;-74
2023/05/23 03:58:07;;;;;;;69.07;65.10;;;;;;;20.66;48.22;101929.09;4992900;28;20126;-73
2023/05/23 04:00:32;;;;;;;68.05;64.35;;;;;;;20.65;48.04;101926.63;4993435;28;20038;-73
2023/05/23 04:02:57;;;;;;;68.78;65.28;;;;;;;20.62;48.63;101927.19;4992466;28;20038;-73
2023/05/23 04:05:23;;;;;;;68.50;64.50;;;;;;;20.61;48.13;101934.56;4997424;28;20033;-76
2023/05/23 04:07:50;;;;;;;70.85;66.85;;;;;;;20.59;48.45;101941.44;4993871;28;20042;-74
2023/05/23 04:10:15;;;;;;;67.78;64.25;;;;;;;20.57;48.49;101941.75;4994218;28;20041;-74
2023/05/23 04:12:41;;;;;;;70.68;66.40;;;;;;;20.56;48.32;101942.03;5011040;28;20034;-74
2023/05/23 04:15:07;;;;;;;68.47;64.80;;;;;;;20.55;48.63;101954.13;5005756;28;20034;-73
2023/05/23 04:17:34;;;;;;;69.80;65.72;;;;;;;20.50;48.53;101954.91;5012764;28;20128;-76
2023/05/23 04:19:59;;;;;;;69.35;65.55;;;;;;;20.48;48.19;101944.22;5004497;28;20038;-73
2023/05/23 04:22:25;;;;;;;68.82;64.97;;;;;;;20.46;48.35;101946.44;5007367;28;20397;-73
2023/05/23 04:24:50;;;;;;;66.28;62.65;;;;;;;20.44;48.66;101947.81;5000142;28;20033;-73
2023/05/23 04:27:15;;;;;;;65.95;62.00;;;;;;;20.43;48.63;101954.38;5001207;28;20096;-73
2023/05/23 04:29:41;;;;;;;67.70;64.20;;;;;;;20.41;48.58;101956.59;5017077;28;20041;-73
2023/05/23 04:32:07;;;;;;;69.93;65.70;;;;;;;20.39;48.64;101956.06;5012888;28;20061;-73
2023/05/23 04:34:36;;;;;;;68.43;64.47;;;;;;;20.36;48.81;101957.44;5012288;28;20037;-73
2023/05/23 04:37:02;;;;;;;69.22;64.82;;;;;;;20.35;48.25;101963.22;5000396;28;20034;-73
2023/05/23 04:39:28;;;;;;;68.63;64.90;;;;;;;20.33;48.30;101966.22;5019303;28;20362;-73
2023/05/23 04:41:55;;;;;;;65.93;62.47;;;;;;;20.31;48.87;101966.50;5015912;28;20113;-75
2023/05/23 04:44:21;;;;;;;67.35;63.58;;;;;;;20.29;48.91;101973.38;5016078;28;20460;-75
2023/05/23 04:46:46;;;;;;;66.15;62.95;;;;;;;20.26;48.67;101969.28;5009926;28;20113;-74
2023/05/23 04:49:13;;;;;;;69.93;65.70;;;;;;;20.25;48.71;101970.34;5004565;28;20038;-75
2023/05/23 04:51:38;;;;;;;66.72;63.30;;;;;;;20.24;48.86;101979.69;5007119;28;20428;-75
2023/05/23 04:54:04;;;;;;;69.78;65.28;;;;;;;20.22;48.49;101973.66;5006962;28;20045;-74
2023/05/23 04:56:30;;;;;;;68.63;64.20;;;;;;;20.19;48.95;101974.22;5008984;28;20041;-74
2023/05/23 04:58:55;;;;;;;67.60;63.60;;;;;;;20.17;48.98;101981.91;5008105;28;20042;-75
2023/05/23 05:01:24;;;;;;;65.15;61.75;;;;;;;20.15;48.51;101984.09;4998575;28;20054;-74
2023/05/23 05:03:51;;;;;;;65.75;61.53;;;;;;;20.14;48.58;101992.63;5018321;28;20125;-75
2023/05/23 05:06:17;;;;;;;65.38;61.42;;;;;;;20.14;48.61;101990.69;5010938;28;20489;-74
2023/05/23 05:08:42;;;;;;;65.05;61.28;;;;;;;20.12;48.59;101990.13;5006864;28;20065;-75
2023/05/23 05:11:09;;;;;;;65.72;62.33;;;;;;;20.09;48.84;101988.78;4996871;28;20061;-74
2023/05/23 05:13:34;;;;;;;66.43;62.78;;;;;;;20.07;48.79;101992.91;5017555;28;20087;-73
2023/05/23 05:16:00;;;;;;;65.88;62.03;;;;;;;20.05;48.76;101993.16;5010582;28;20057;-74
2023/05/23 05:18:26;;;;;;;64.30;60.63;;;;;;;20.05;48.66;101997.81;5017132;28;20430;-73
2023/05/23 05:20:51;;;;;;;64.50;60.92;;;;;;;20.03;48.46;101997.28;4997139;28;20035;-73
2023/05/23 05:23:17;;;;;;;62.83;59.38;;;;;;;20.02;48.85;101992.91;4994042;28;20387;-72
2023/05/23 05:25:42;;;;;;;64.32;61.03;;;;;;;19.99;48.61;102001.69;5001006;28;20064;-73
2023/05/23 05:28:08;;;;;;;62.70;59.63;;;;;;;19.98;48.55;102008.25;5011779;28;20032;-73
2023/05/23 05:30:37;;;;;;;68.32;64.32;;;;;;;19.96;48.79;102011.28;5010410;28;20520;-73
2023/05/23 05:33:03;;;;;;;62.38;59.25;;;;;;;19.94;48.57;102012.66;5016122;28;20536;-73
2023/05/23 05:35:34;;;;;;;63.42;60.45;;;;;;;19.89;48.60;102022.53;5015735;28;20100;-74
2023/05/23 05:38:01;;;;;;;65.60;62.30;;;;;;;19.87;49.25;102029.38;5012931;28;20095;-74
2023/05/23 05:40:27;;;;;;;60.25;57.03;;;;;;;19.85;48.69;102026.06;5014276;28;20034;-73
2023/05/23 05:42:52;;;;;;;62.40;58.85;;;;;;;19.84;48.94;102027.19;5001108;28;20072;-73
2023/05/23 05:45:17;;;;;;;60.25;57.13;;;;;;;19.81;49.05;102036.78;5001675;28;20503;-74
2023/05/23 05:47:44;;;;;;;63.58;60.58;;;;;;;19.79;48.95;102033.50;5019192;28;20026;-73
2023/05/23 05:50:10;;;;;;;61.88;58.80;;;;;;;19.77;48.75;102038.41;5011017;28;20038;-73
2023/05/23 05:52:39;;;;;;;59.40;56.40;;;;;;;19.76;49.16;102033.22;5008667;28;20391;-74
2023/05/23 05:55:10;;;;;;;61.85;58.45;;;;;;;19.73;48.79;102042.81;5008378;28;20030;-73
2023/05/23 05:57:37;;;;;;;64.47;60.92;;;;;;;19.72;48.70;102041.16;5004245;28;20031;-78
2023/05/23 06:00:11;;;;;;;61.33;57.88;;;;;;;19.69;48.30;102044.44;5010747;28;20034;-74
2023/05/23 06:02:37;;;;;;;62.03;57.95;;;;;;;19.63;48.39;102046.34;5011307;28;20095;-73
2023/05/23 06:05:03;;;;;;;62.30;59.10;;;;;;;19.61;48.11;102056.75;5013054;28;20137;-73
2023/05/23 06:07:28;;;;;;;59.83;56.80;;;;;;;19.59;48.27;102049.88;5018109;28;20108;-72
2023/05/23 06:09:53;;;;;;;61.53;56.65;;;;;;;19.58;48.54;102064.66;5025943;28;20029;-73
2023/05/23 06:12:19;;;;;;;61.78;58.40;;;;;;;19.56;48.62;102062.22;5016756;28;20485;-72
2023/05/23 06:14:44;;;;;;;60.97;56.08;;;;;;;19.55;48.49;102065.22;5009036;28;20034;-72
2023/05/23 06:17:10;;;;;;;59.95;57.10;;;;;;;19.53;48.36;102062.75;5014353;28;20038;-72
2023/05/23 06:19:37;;;;;;;59.00;56.13;;;;;;;19.52;48.74;102058.34;5013737;28;20050;-72
2023/05/23 06:22:02;;;;;;;57.83;55.13;;;;;;;19.49;48.72;102063.56;5007382;28;20045;-72
2023/05/23 06:24:28;;;;;;;60.17;57.17;;;;;;;19.48;48.90;102072.88;5018176;28;20041;-76
2023/05/23 06:26:53;;;;;;;58.20;55.22;;;;;;;19.46;49.03;102070.41;5016878;28;20124;-73
2023/05/23 06:29:19;;;;;;;59.90;56.90;;;;;;;19.45;49.01;102069.59;5022888;28;20112;-72
2023/05/23 06:31:44;;;;;;;62.97;58.97;;;;;;;19.43;48.78;102071.78;5033610;28;20033;-72
2023/05/23 06:34:09;;;;;;;59.20;56.17;;;;;;;19.41;48.91;102076.69;5030539;28;20546;-72
2023/05/23 06:36:35;;;;;;;58.20;55.47;;;;;;;19.40;48.74;102077.81;5027441;28;20034;-71
2023/05/23 06:39:00;;;;;;;60.47;57.55;;;;;;;19.39;48.52;102075.31;5008279;28;20066;-72
2023/05/23 06:41:26;;;;;;;59.80;56.92;;;;;;;19.38;48.55;102076.44;5008238;28;20064;-76
2023/05/23 06:43:51;;;;;;;59.78;56.97;;;;;;;19.35;48.34;102068.72;5002019;28;20034;-71
2023/05/23 06:46:17;;;;;;;59.55;56.75;;;;;;;19.34;48.75;102075.31;5015455;28;20462;-73
2023/05/23 06:48:42;;;;;;;59.42;55.97;;;;;;;19.33;48.28;102079.16;4987254;28;20471;-72
2023/05/23 06:51:08;;;;;;;59.25;56.28;;;;;;;19.31;48.02;102081.34;5009874;28;20069;-72
2023/05/23 06:53:33;;;;;;;57.33;54.53;;;;;;;19.28;48.10;102088.16;5028532;28;20423;-72
2023/05/23 06:55:58;;;;;;;59.03;55.78;;;;;;;19.26;48.17;102078.56;5016947;28;20370;-72
2023/05/23 06:58:25;;;;;;;58.17;55.10;;;;;;;19.24;48.02;102098.00;5001463;28;20038;-74
2023/05/23 07:00:51;;;;;;;58.33;55.58;;;;;;;19.25;48.41;102091.41;5025091;28;20511;-72
2023/05/23 07:03:16;;;;;;;61.08;57.60;;;;;;;19.24;48.47;102098.81;5012264;28;20117;-73
2023/05/23 07:05:42;;;;;;;59.50;56.13;;;;;;;19.24;48.30;102100.75;5011350;28;20582;-71
2023/05/23 07:08:09;;;;;;;57.35;54.50;;;;;;;19.22;48.08;102106.47;5010755;28;20093;-74
2023/05/23 07:10:35;;;;;;;59.25;55.45;;;;;;;19.22;48.31;102116.63;4999093;28;20036;-77
2023/05/23 07:13:00;;;;;;;58.75;55.80;;;;;;;19.21;48.43;102110.31;4995208;28;20031;-72
2023/05/23 07:15:25;;;;;;;59.22;56.00;;;;;;;19.21;48.00;102114.97;5009781;28;20116;-72
2023/05/23 07:17:51;;;;;;;58.15;55.35;;;;;;;19.18;48.37;102121.00;5000269;28;20054;-73
2023/05/23 07:20:16;;;;;;;59.88;56.70;;;;;;;19.16;48.09;102115.78;5017950;28;20029;-73
2023/05/23 07:22:42;;;;;;;59.20;56.05;;;;;;;19.16;48.40;102121.25;5022132;28;20069;-73
2023/05/23 07:25:08;;;;;;;57.85;54.30;;;;;;;19.16;48.38;102123.19;5015951;28;20033;-77
2023/05/23 07:27:33;;;;;;;59.30;55.45;;;;;;;19.15;47.98;102116.88;5029535;28;20190;-73
2023/05/23 07:29:59;;;;;;;57.20;53.60;;;;;;;19.16;48.05;102117.69;5022121;28;20048;-73
2023/05/23 07:32:24;;;;;;;55.78;52.72;;;;;;;19.15;48.09;102121.50;5015662;28;20083;-72
2023/05/23 07:34:49;;;;;;;54.88;51.95;;;;;;;19.14;48.17;102126.19;4996310;28;20030;-72
2023/05/23 07:37:15;;;;;;;57.55;54.35;;;;;;;19.13;48.00;102132.75;5002341;28;20065;-73
2023/05/23 07:39:40;;;;;;;55.45;52.40;;;;;;;19.14;47.99;102145.34;5001811;28;20038;-73
2023/05/23 07:42:06;;;;;;;52.75;49.95;;;;;;;19.12;48.01;102133.00;5012169;28;20030;-77
2023/05/23 07:44:31;;;;;;;56.58;53.33;;;;;;;19.11;48.17;102148.63;5022013;28;20038;-73
2023/05/23 07:46:57;;;;;;;53.88;51.20;;;;;;;19.11;48.04;102134.13;5007758;28;20038;-73
2023/05/23 07:49:22;;;;;;;57.80;54.33;;;;;;;19.10;48.04;102137.91;5014347;28;20033;-72
2023/05/23 07:51:47;;;;;;;54.00;51.20;;;;;;;19.09;47.82;102136.28;5020064;28;20072;-73
2023/05/23 07:54:13;;;;;;;53.53;50.78;;;;;;;19.08;48.16;102146.44;5020600;28;20481;-73
2023/05/23 07:56:38;;;;;;;54.88;51.65;;;;;;;19.08;48.06;102143.69;5019281;28;20042;-73
2023/05/23 07:59:04;;;;;;;55.95;51.90;;;;;;;19.07;48.15;102152.16;5014442;28;20034;-73
2023/05/23 08:01:30;;;;;;;57.15;53.53;;;;;;;19.08;48.24;102145.59;5018154;28;20316;-72
2023/05/23 08:03:56;;;;;;;55.92;52.38;;;;;;;19.07;47.93;102144.75;5008163;28;20049;-75
2023/05/23 08:06:21;;;;;;;58.42;55.30;;;;;;;19.06;47.79;102150.53;5013713;28;20071;-73
2023/05/23 08:08:46;;;;;;;58.05;54.92;;;;;;;19.06;47.51;102158.75;5019015;28;20034;-72
2023/05/23 08:11:13;;;;;;;55.65;52.58;;;;;;;19.06;48.12;102158.75;5010039;28;20048;-73
2023/05/23 08:13:39;;;;;;;58.20;55.00;;;;;;;19.05;47.85;102162.53;5018470;28;20270;-75
2023/05/23 08:16:05;;;;;;;54.13;51.42;;;;;;;19.05;48.29;102162.53;5000640;28;20042;-73
2023/05/23 08:18:30;;;;;;;55.08;52.30;;;;;;;19.02;48.10;102163.91;5007697;28;20533;-73
2023/05/23 08:20:55;;;;;;;52.80;50.10;;;;;;;19.01;48.23;102157.59;5012919;28;20500;-74
2023/05/23 08:23:21;;;;;;;54.72;52.03;;;;;;;19.01;48.05;102165.81;5013117;28;20049;-74
2023/05/23 08:25:46;;;;;;;54.40;51.33;;;;;;;19.01;48.04;102162.25;5000629;28;20034;-73
2023/05/23 08:28:12;;;;;;;58.35;55.00;;;;;;;19.01;47.83;102157.59;5011278;28;20536;-73
2023/05/23 08:30:37;;;;;;;57.10;54.03;;;;;;;19.01;48.17;102154.03;5012199;28;20040;-72
2023/05/23 08:33:03;;;;;;;54.05;51.30;;;;;;;19.00;48.30;102152.41;5017669;28;20120;-74
2023/05/23 08:35:34;;;;;;;53.42;50.80;;;;;;;19.00;47.88;102157.88;5007339;28;20089;-73
2023/05/23 08:38:00;;;;;;;53.63;50.83;;;;;;;18.99;48.32;102154.31;5011701;28;20453;-72
2023/05/23 08:40:29;;;;;;;54.75;51.95;;;;;;;18.99;48.22;102154.31;5015662;28;20065;-71
2023/05/23 08:42:55;;;;;;;54.13;51.17;;;;;;;18.99;48.04;102165.25;5005116;28;20038;-73
2023/05/23 08:45:20;;;;;;;56.63;53.63;;;;;;;18.99;48.28;102162.50;4994732;28;20394;-73
2023/05/23 08:47:46;;;;;;;54.58;51.97;;;;;;;18.99;48.29;102170.72;5011726;28;20465;-73
2023/05/23 08:50:13;;;;;;;55.55;52.78;;;;;;;19.00;48.31;102168.84;5005512;28;20033;-73
2023/05/23 08:52:58;;;;;;;57.25;54.50;;;;;;;18.98;48.09;102171.84;4995556;28;20034;-73
2023/05/23 08:55:26;;;;;;;55.40;52.67;;;;;;;18.98;48.05;102177.31;5015379;28;20095;-84
2023/05/23 08:57:52;;;;;;;54.63;51.15;;;;;;;18.98;47.77;102168.28;5023105;28;20525;-74
2023/05/23 09:00:19;;;;;;;55.00;52.08;;;;;;;18.98;48.34;102171.84;4999553;28;20104;-74
2023/05/23 09:02:45;;;;;;;54.70;51.63;;;;;;;18.99;48.19;102173.47;5014226;28;20038;-74
2023/05/23 09:05:11;;;;;;;55.35;52.45;;;;;;;18.99;47.84;102178.94;5021051;28;20120;-74
2023/05/23 09:07:36;;;;;;;57.03;54.00;;;;;;;19.01;47.94;102176.78;5044101;28;20359;-75
2023/05/23 09:10:04;;;;;;;54.65;52.00;;;;;;;19.02;47.89;102180.31;5012343;28;20200;-72
2023/05/23 09:12:32;;;;;;;56.20;53.20;;;;;;;19.03;47.69;102176.53;5011617;28;20103;-73
2023/05/23 09:14:57;;;;;;;54.22;51.47;;;;;;;19.02;47.94;102178.44;5017421;28;20100;-72
2023/05/23 09:17:23;;;;;;;54.72;51.92;;;;;;;19.01;48.20;102182.25;5012273;28;20062;-73
2023/05/23 09:19:49;;;;;;;53.67;51.08;;;;;;;19.01;47.94;102184.16;5011939;28;20041;-76
2023/05/23 09:22:14;;;;;;;53.08;50.53;;;;;;;19.02;48.27;102183.06;5002541;28;20045;-75
2023/05/23 09:24:40;;;;;;;53.45;50.95;;;;;;;19.03;48.14;102185.56;5023790;28;20053;-74
2023/05/23 09:27:07;;;;;;;55.00;52.28;;;;;;;19.03;48.09;102182.81;5023796;28;20032;-74
2023/05/23 09:29:38;;;;;;;56.38;53.05;;;;;;;19.04;48.01;102186.38;5012810;28;20474;-74
2023/05/23 09:32:11;;;;;;;54.67;51.88;;;;;;;19.05;47.74;102185.31;5020230;28;20135;-74
2023/05/23 09:34:40;;;;;;;55.33;52.63;;;;;;;19.05;47.86;102185.31;5019130;28;20121;-72
2023/05/23 09:37:06;;;;;;;53.63;50.88;;;;;;;19.06;48.37;102181.47;4992564;28;20058;-74
2023/05/23 09:39:36;;;;;;;58.35;55.45;;;;;;;19.06;47.95;102191.59;4995429;28;20094;-74
2023/05/23 09:42:01;;;;;;;55.58;52.72;;;;;;;19.06;47.94;102191.59;5013863;28;20040;-74
2023/05/23 09:44:27;;;;;;;58.70;55.28;;;;;;;19.06;47.91;102181.47;5022291;28;20045;-74
2023/05/23 09:46:52;;;;;;;57.35;53.60;;;;;;;19.08;47.62;102186.69;5008939;28;20121;-75
2023/05/23 09:49:18;;;;;;;53.78;50.17;;;;;;;19.09;47.31;102194.63;4991977;28;20034;-78
2023/05/23 09:51:55;;;;;;;53.08;50.28;;;;;;;19.11;47.24;102191.63;5012214;28;20470;-74
2023/05/23 09:54:21;;;;;;;53.47;50.67;;;;;;;19.11;47.27;102184.22;5007572;28;20046;-85
2023/05/23 09:56:47;;;;;;;54.78;51.58;;;;;;;19.12;47.69;102190.53;5009390;28;20038;-76
2023/05/23 09:59:19;;;;;;;54.05;51.40;;;;;;;19.12;47.33;102183.13;5007969;28;20038;-74
2023/05/23 10:01:46;;;;;;;54.83;52.30;;;;;;;19.13;47.60;102192.19;5015103;28;20030;-74
2023/05/23 10:04:16;;;;;;;53.63;51.13;;;;;;;19.15;47.56;102196.31;5017243;28;20037;-74
2023/05/23 10:06:52;;;;;;;55.20;52.33;;;;;;;19.14;47.64;102186.44;5014129;28;20267;-74
2023/05/23 10:09:19;;;;;;;53.20;50.40;;;;;;;19.17;47.48;102201.50;5002263;28;20034;-74
2023/05/23 10:12:09;;;;;;;55.13;52.17;;;;;;;19.18;47.83;102200.44;5020758;28;20057;-74
2023/05/23 10:14:39;;;;;;;55.15;52.30;;;;;;;19.20;47.62;102190.00;5015513;28;20073;-76
2023/05/23 10:17:17;;;;;;;55.42;51.83;;;;;;;19.23;47.11;102189.50;5015182;28;20093;-74
2023/05/23 10:19:49;;;;;;;56.20;53.20;;;;;;;19.26;47.56;102194.44;5015309;28;20088;-79
2023/05/23 10:22:15;;;;;;;54.33;51.03;;;;;;;19.28;47.19;102186.78;5018959;28;20030;-74
2023/05/23 10:24:43;;;;;;;56.95;53.63;;;;;;;19.31;47.13;102188.19;5013612;28;20041;-75
2023/05/23 10:27:10;;;;;;;54.42;51.42;;;;;;;19.33;47.55;102192.31;5000085;28;20398;-75
2023/05/23 10:29:36;;;;;;;58.97;55.53;;;;;;;19.36;47.47;102199.97;5013497;28;20029;-74
2023/05/23 10:32:04;;;;;;;54.60;52.00;;;;;;;19.40;47.31;102206.59;5023278;28;20489;-74
2023/05/23 10:35:04;;;;;;;56.15;52.80;;;;;;;19.43;46.95;102194.28;5021318;28;20033;-73
2023/05/23 10:37:47;;;;;;;57.60;54.42;;;;;;;19.47;46.96;102187.13;5019443;28;20068;-72
2023/05/23 10:40:33;;;;;;;56.92;54.22;;;;;;;19.51;47.46;102192.94;5012953;28;20092;-74
2023/05/23 10:43:15;;;;;;;57.47;53.88;;;;;;;19.57;46.63;102186.38;5005878;28;20105;-73
2023/05/23 10:45:41;;;;;;;60.13;57.05;;;;;;;19.62;46.38;102191.88;5015362;28;20072;-74
2023/05/23 10:48:21;;;;;;;57.58;54.78;;;;;;;19.66;46.96;102187.50;5011975;28;20026;-72
2023/05/23 10:51:01;;;;;;;56.28;53.28;;;;;;;19.72;47.14;102196.59;5027448;28;20462;-73
2023/05/23 10:53:28;;;;;;;58.13;55.03;;;;;;;19.77;46.89;102189.22;5015957;28;20038;-83
2023/05/23 10:55:55;;;;;;;61.08;57.88;;;;;;;19.81;46.87;102192.25;4996578;28;20096;-71
2023/05/23 10:58:21;;;;;;;59.17;55.85;;;;;;;19.86;46.69;102195.81;5008282;28;20474;-76
2023/05/23 11:00:54;;;;;;;60.38;57.25;;;;;;;19.92;46.96;102199.41;4999407;28;20044;-74
2023/05/23 11:03:46;;;;;;;59.00;56.22;;;;;;;19.98;46.85;102189.25;5028196;28;20042;-76
2023/05/23 11:06:47;;;;;;;59.97;57.08;;;;;;;20.02;46.89;102191.19;5008895;28;20152;-75
2023/05/23 11:09:18;;;;;;;60.17;56.47;;;;;;;20.07;47.00;102191.19;5020568;28;20038;-74